Dresden, Canada
Current Conditions -  °F | °C
As of 7:40 AM on Monday 20 Oct 2014 (Local Time) from CYCK Reporting Station
Overcast Overcast  
Wind Chill: 50°   Ceiling: 8000
Heat Index: 50°   Visibility: 9mi
Dew Point: 46°   Wind: 8mph
Humidity: 87%   Direction: 230°SW
Pressure: 29.88"   Gusts: NA
Location:  42.58°N, 82.17°W
Report Text: CYCK 201140Z AUTO 23007KT 9SM OVC080 10/08 A2988 RMK SLP120
Loading
Personal Weather Stations






























Interactive Weather Map
Tropical Storm Tracking
New forecast layout! Learn more

10-Day Weather Forecast

Advertisements
Track Severe Weather on mobile